Hill West, Vermont
Current Conditions -  °F | °C
As of 1:15 PM on Monday 22 Dec 2014 (Local Time) from KFSO Reporting Station
Haze Haze  
Wind Chill: 20°   Ceiling: 3700
Heat Index: 20°   Visibility: 5mi
Dew Point: 17°   Wind: 0mph
Humidity: 87%   Direction: NA
Pressure: 30.36"   Gusts: NA
Location:  44.8764°N, 72.758°W
Report Text: KFSO 221815Z AUTO 00000KT 5SM BR OVC037 M07/M08 A3036 RMK AO2 T10671085
Loading
Personal Weather Stations






























Interactive Weather Map New forecast layout! Learn more

10-Day Weather Forecast

Advertisements
Track Severe Weather on mobile